sensor_id;sensor_type;location;lat;lon;timestamp;temperature;humidity
43894;DHT22;29556;50.846;4.442;2022-10-22T00:00:25;16.10;93.20
43894;DHT22;29556;50.846;4.442;2022-10-22T00:02:51;16.10;93.30
43894;DHT22;29556;50.846;4.442;2022-10-22T00:05:17;16.10;93.30
43894;DHT22;29556;50.846;4.442;2022-10-22T00:07:42;16.20;93.40
43894;DHT22;29556;50.846;4.442;2022-10-22T00:10:08;16.20;93.40
43894;DHT22;29556;50.846;4.442;2022-10-22T00:12:34;16.10;93.40
43894;DHT22;29556;50.846;4.442;2022-10-22T00:15:00;16.10;93.50
43894;DHT22;29556;50.846;4.442;2022-10-22T00:17:26;16.20;93.50
43894;DHT22;29556;50.846;4.442;2022-10-22T00:19:51;16.10;93.50
43894;DHT22;29556;50.846;4.442;2022-10-22T00:22:17;16.20;93.60
43894;DHT22;29556;50.846;4.442;2022-10-22T00:24:42;16.10;93.60
43894;DHT22;29556;50.846;4.442;2022-10-22T00:27:12;16.10;93.60
43894;DHT22;29556;50.846;4.442;2022-10-22T00:29:42;16.10;93.60
43894;DHT22;29556;50.846;4.442;2022-10-22T00:32:08;16.10;93.60
43894;DHT22;29556;50.846;4.442;2022-10-22T00:34:34;16.10;93.70
43894;DHT22;29556;50.846;4.442;2022-10-22T00:37:00;16.10;93.70
43894;DHT22;29556;50.846;4.442;2022-10-22T00:39:26;16.10;93.70
43894;DHT22;29556;50.846;4.442;2022-10-22T00:41:54;16.10;93.70
43894;DHT22;29556;50.846;4.442;2022-10-22T00:47:24;16.10;93.80
43894;DHT22;29556;50.846;4.442;2022-10-22T00:49:53;16.10;93.70
43894;DHT22;29556;50.846;4.442;2022-10-22T00:52:19;16.10;93.80
43894;DHT22;29556;50.846;4.442;2022-10-22T00:54:45;16.10;93.80
43894;DHT22;29556;50.846;4.442;2022-10-22T00:57:11;16.10;93.80
43894;DHT22;29556;50.846;4.442;2022-10-22T00:59:37;16.10;93.90
43894;DHT22;29556;50.846;4.442;2022-10-22T01:02:03;16.10;94.00
43894;DHT22;29556;50.846;4.442;2022-10-22T01:04:29;16.10;94.00
43894;DHT22;29556;50.846;4.442;2022-10-22T01:06:55;16.10;94.00
43894;DHT22;29556;50.846;4.442;2022-10-22T01:09:40;16.10;93.90
43894;DHT22;29556;50.846;4.442;2022-10-22T01:22:41;16.10;94.10
43894;DHT22;29556;50.846;4.442;2022-10-22T01:30:32;16.10;94.30
43894;DHT22;29556;50.846;4.442;2022-10-22T01:33:01;16.00;94.20
43894;DHT22;29556;50.846;4.442;2022-10-22T01:35:34;16.10;94.20
43894;DHT22;29556;50.846;4.442;2022-10-22T01:38:04;16.10;94.30
43894;DHT22;29556;50.846;4.442;2022-10-22T01:40:31;16.10;94.20
43894;DHT22;29556;50.846;4.442;2022-10-22T01:42:59;16.00;94.30
43894;DHT22;29556;50.846;4.442;2022-10-22T01:45:26;16.10;94.40
43894;DHT22;29556;50.846;4.442;2022-10-22T01:48:43;16.10;94.40
43894;DHT22;29556;50.846;4.442;2022-10-22T01:51:11;16.10;94.50
43894;DHT22;29556;50.846;4.442;2022-10-22T01:54:19;16.10;94.50
43894;DHT22;29556;50.846;4.442;2022-10-22T02:06:49;16.10;94.50
43894;DHT22;29556;50.846;4.442;2022-10-22T02:09:18;16.00;94.40
43894;DHT22;29556;50.846;4.442;2022-10-22T02:11:45;16.00;94.50
43894;DHT22;29556;50.846;4.442;2022-10-22T02:14:13;16.00;94.60
43894;DHT22;29556;50.846;4.442;2022-10-22T02:16:45;16.00;94.60
43894;DHT22;29556;50.846;4.442;2022-10-22T02:19:27;16.00;94.60
43894;DHT22;29556;50.846;4.442;2022-10-22T02:21:53;16.00;94.70
43894;DHT22;29556;50.846;4.442;2022-10-22T02:24:20;16.00;94.60
43894;DHT22;29556;50.846;4.442;2022-10-22T02:27:20;16.00;94.60
43894;DHT22;29556;50.846;4.442;2022-10-22T02:30:04;16.00;94.60
43894;DHT22;29556;50.846;4.442;2022-10-22T02:35:05;16.00;94.70
43894;DHT22;29556;50.846;4.442;2022-10-22T02:37:31;16.00;94.60
43894;DHT22;29556;50.846;4.442;2022-10-22T02:39:57;16.00;94.60
43894;DHT22;29556;50.846;4.442;2022-10-22T02:42:24;15.90;94.60
43894;DHT22;29556;50.846;4.442;2022-10-22T02:44:51;15.90;94.50
43894;DHT22;29556;50.846;4.442;2022-10-22T02:47:17;15.90;94.60
43894;DHT22;29556;50.846;4.442;2022-10-22T02:49:42;15.90;94.60
43894;DHT22;29556;50.846;4.442;2022-10-22T02:52:08;15.90;94.60
43894;DHT22;29556;50.846;4.442;2022-10-22T02:54:34;15.90;94.60
43894;DHT22;29556;50.846;4.442;2022-10-22T02:56:59;15.90;94.50
43894;DHT22;29556;50.846;4.442;2022-10-22T02:59:25;15.90;94.60
43894;DHT22;29556;50.846;4.442;2022-10-22T03:01:50;15.90;94.60
43894;DHT22;29556;50.846;4.442;2022-10-22T03:04:16;15.90;94.50
43894;DHT22;29556;50.846;4.442;2022-10-22T03:06:42;15.90;94.60
43894;DHT22;29556;50.846;4.442;2022-10-22T03:09:08;15.90;94.60
43894;DHT22;29556;50.846;4.442;2022-10-22T03:11:34;15.90;94.60
43894;DHT22;29556;50.846;4.442;2022-10-22T03:14:00;15.90;94.60
43894;DHT22;29556;50.846;4.442;2022-10-22T03:16:25;15.80;94.50
43894;DHT22;29556;50.846;4.442;2022-10-22T03:18:51;15.80;94.50
43894;DHT22;29556;50.846;4.442;2022-10-22T03:21:53;15.80;94.50
43894;DHT22;29556;50.846;4.442;2022-10-22T03:24:24;15.80;94.50
43894;DHT22;29556;50.846;4.442;2022-10-22T03:26:50;15.80;94.50
43894;DHT22;29556;50.846;4.442;2022-10-22T03:29:18;15.80;94.60
43894;DHT22;29556;50.846;4.442;2022-10-22T03:31:46;15.80;94.60
43894;DHT22;29556;50.846;4.442;2022-10-22T03:34:11;15.80;94.60
43894;DHT22;29556;50.846;4.442;2022-10-22T03:36:39;15.80;94.70
43894;DHT22;29556;50.846;4.442;2022-10-22T03:39:06;15.90;94.70
43894;DHT22;29556;50.846;4.442;2022-10-22T03:41:32;15.90;94.70
43894;DHT22;29556;50.846;4.442;2022-10-22T03:44:00;15.90;94.70
43894;DHT22;29556;50.846;4.442;2022-10-22T03:46:27;15.90;94.70
43894;DHT22;29556;50.846;4.442;2022-10-22T03:48:53;15.90;94.80
43894;DHT22;29556;50.846;4.442;2022-10-22T03:51:18;15.90;94.80
43894;DHT22;29556;50.846;4.442;2022-10-22T03:53:44;15.90;94.80
43894;DHT22;29556;50.846;4.442;2022-10-22T03:56:11;16.00;94.80
43894;DHT22;29556;50.846;4.442;2022-10-22T03:58:38;16.10;94.90
43894;DHT22;29556;50.846;4.442;2022-10-22T04:01:05;16.00;94.80
43894;DHT22;29556;50.846;4.442;2022-10-22T04:03:32;16.00;94.80
43894;DHT22;29556;50.846;4.442;2022-10-22T04:06:06;16.00;94.80
43894;DHT22;29556;50.846;4.442;2022-10-22T04:08:32;16.00;94.70
43894;DHT22;29556;50.846;4.442;2022-10-22T04:10:58;15.90;94.60
43894;DHT22;29556;50.846;4.442;2022-10-22T04:13:24;15.90;94.60
43894;DHT22;29556;50.846;4.442;2022-10-22T04:15:49;15.90;94.50
43894;DHT22;29556;50.846;4.442;2022-10-22T04:18:20;16.00;94.30
43894;DHT22;29556;50.846;4.442;2022-10-22T04:20:46;15.90;94.50
43894;DHT22;29556;50.846;4.442;2022-10-22T04:23:12;15.90;94.50
43894;DHT22;29556;50.846;4.442;2022-10-22T04:25:38;15.90;94.40
43894;DHT22;29556;50.846;4.442;2022-10-22T04:28:07;15.90;94.40
43894;DHT22;29556;50.846;4.442;2022-10-22T04:30:35;15.90;94.30
43894;DHT22;29556;50.846;4.442;2022-10-22T04:33:01;15.90;94.20
43894;DHT22;29556;50.846;4.442;2022-10-22T04:35:27;15.90;94.20
43894;DHT22;29556;50.846;4.442;2022-10-22T04:37:54;15.90;94.20
43894;DHT22;29556;50.846;4.442;2022-10-22T04:40:20;15.90;94.50
43894;DHT22;29556;50.846;4.442;2022-10-22T04:42:46;15.90;94.10
43894;DHT22;29556;50.846;4.442;2022-10-22T04:45:11;15.90;94.00
43894;DHT22;29556;50.846;4.442;2022-10-22T04:47:37;15.90;94.10
43894;DHT22;29556;50.846;4.442;2022-10-22T04:50:03;15.90;94.10
43894;DHT22;29556;50.846;4.442;2022-10-22T04:52:30;15.90;94.10
43894;DHT22;29556;50.846;4.442;2022-10-22T04:54:55;16.00;94.20
43894;DHT22;29556;50.846;4.442;2022-10-22T04:57:21;16.00;94.20
43894;DHT22;29556;50.846;4.442;2022-10-22T04:59:47;16.00;94.10
43894;DHT22;29556;50.846;4.442;2022-10-22T05:02:13;16.00;94.10
43894;DHT22;29556;50.846;4.442;2022-10-22T05:04:39;16.10;93.90
43894;DHT22;29556;50.846;4.442;2022-10-22T05:07:05;16.10;93.90
43894;DHT22;29556;50.846;4.442;2022-10-22T05:09:30;16.10;94.00
43894;DHT22;29556;50.846;4.442;2022-10-22T05:11:56;16.20;93.90
43894;DHT22;29556;50.846;4.442;2022-10-22T05:14:23;16.20;93.80
43894;DHT22;29556;50.846;4.442;2022-10-22T05:16:50;16.20;93.70
43894;DHT22;29556;50.846;4.442;2022-10-22T05:19:20;16.30;93.50
43894;DHT22;29556;50.846;4.442;2022-10-22T05:21:48;16.30;93.40
43894;DHT22;29556;50.846;4.442;2022-10-22T05:24:14;16.30;93.30
43894;DHT22;29556;50.846;4.442;2022-10-22T05:26:40;16.40;93.30
43894;DHT22;29556;50.846;4.442;2022-10-22T05:29:06;16.40;93.30
43894;DHT22;29556;50.846;4.442;2022-10-22T05:31:31;16.40;93.10
43894;DHT22;29556;50.846;4.442;2022-10-22T05:33:57;16.40;93.10
43894;DHT22;29556;50.846;4.442;2022-10-22T05:36:22;16.40;93.00
43894;DHT22;29556;50.846;4.442;2022-10-22T05:38:48;16.50;93.40
43894;DHT22;29556;50.846;4.442;2022-10-22T05:41:17;16.50;92.90
43894;DHT22;29556;50.846;4.442;2022-10-22T05:43:44;16.50;93.00
43894;DHT22;29556;50.846;4.442;2022-10-22T05:46:15;16.60;93.30
43894;DHT22;29556;50.846;4.442;2022-10-22T05:48:41;16.60;92.90
43894;DHT22;29556;50.846;4.442;2022-10-22T05:51:11;16.60;92.60
43894;DHT22;29556;50.846;4.442;2022-10-22T05:53:40;16.60;92.60
43894;DHT22;29556;50.846;4.442;2022-10-22T05:56:09;16.60;92.70
43894;DHT22;29556;50.846;4.442;2022-10-22T05:58:35;16.60;92.60
43894;DHT22;29556;50.846;4.442;2022-10-22T06:01:03;16.70;92.60
43894;DHT22;29556;50.846;4.442;2022-10-22T06:03:29;16.70;92.60
43894;DHT22;29556;50.846;4.442;2022-10-22T06:06:00;16.60;92.30
43894;DHT22;29556;50.846;4.442;2022-10-22T06:08:29;16.60;92.20
43894;DHT22;29556;50.846;4.442;2022-10-22T06:10:56;16.60;92.10
43894;DHT22;29556;50.846;4.442;2022-10-22T06:13:21;16.60;92.00
43894;DHT22;29556;50.846;4.442;2022-10-22T06:15:48;16.60;92.20
43894;DHT22;29556;50.846;4.442;2022-10-22T06:18:14;16.60;92.20
43894;DHT22;29556;50.846;4.442;2022-10-22T06:20:40;16.60;92.00
43894;DHT22;29556;50.846;4.442;2022-10-22T06:23:07;16.70;92.10
43894;DHT22;29556;50.846;4.442;2022-10-22T06:25:33;16.60;91.80
43894;DHT22;29556;50.846;4.442;2022-10-22T06:27:59;16.60;91.90
43894;DHT22;29556;50.846;4.442;2022-10-22T06:30:24;16.60;91.70
43894;DHT22;29556;50.846;4.442;2022-10-22T06:32:50;16.60;91.80
43894;DHT22;29556;50.846;4.442;2022-10-22T06:35:15;16.60;92.00
43894;DHT22;29556;50.846;4.442;2022-10-22T06:37:41;16.60;91.60
43894;DHT22;29556;50.846;4.442;2022-10-22T06:40:07;16.60;91.50
43894;DHT22;29556;50.846;4.442;2022-10-22T06:42:35;16.60;91.40
43894;DHT22;29556;50.846;4.442;2022-10-22T06:45:01;16.60;91.50
43894;DHT22;29556;50.846;4.442;2022-10-22T06:47:29;16.60;91.60
43894;DHT22;29556;50.846;4.442;2022-10-22T06:49:57;16.60;91.50
43894;DHT22;29556;50.846;4.442;2022-10-22T06:52:23;16.60;91.40
43894;DHT22;29556;50.846;4.442;2022-10-22T06:54:48;16.70;91.50
43894;DHT22;29556;50.846;4.442;2022-10-22T06:57:14;16.70;91.40
43894;DHT22;29556;50.846;4.442;2022-10-22T06:59:40;16.70;91.50
43894;DHT22;29556;50.846;4.442;2022-10-22T07:02:05;16.70;91.40
43894;DHT22;29556;50.846;4.442;2022-10-22T07:09:34;16.80;91.10
43894;DHT22;29556;50.846;4.442;2022-10-22T07:12:05;16.80;91.10
43894;DHT22;29556;50.846;4.442;2022-10-22T07:14:37;16.70;91.00
43894;DHT22;29556;50.846;4.442;2022-10-22T07:17:03;16.80;91.10
43894;DHT22;29556;50.846;4.442;2022-10-22T07:19:28;16.80;91.00
43894;DHT22;29556;50.846;4.442;2022-10-22T07:21:54;16.80;91.00
43894;DHT22;29556;50.846;4.442;2022-10-22T07:24:19;16.70;90.80
43894;DHT22;29556;50.846;4.442;2022-10-22T07:26:45;16.80;91.00
43894;DHT22;29556;50.846;4.442;2022-10-22T07:29:11;16.80;91.00
43894;DHT22;29556;50.846;4.442;2022-10-22T07:31:36;16.80;91.00
43894;DHT22;29556;50.846;4.442;2022-10-22T07:34:02;16.90;91.00
43894;DHT22;29556;50.846;4.442;2022-10-22T07:36:28;16.90;91.10
43894;DHT22;29556;50.846;4.442;2022-10-22T07:38:58;17.00;91.10
43894;DHT22;29556;50.846;4.442;2022-10-22T07:41:25;17.10;91.10
43894;DHT22;29556;50.846;4.442;2022-10-22T07:43:51;17.10;91.00
43894;DHT22;29556;50.846;4.442;2022-10-22T07:46:18;17.10;91.20
43894;DHT22;29556;50.846;4.442;2022-10-22T07:48:44;17.10;90.90
43894;DHT22;29556;50.846;4.442;2022-10-22T07:51:10;17.20;90.90
43894;DHT22;29556;50.846;4.442;2022-10-22T07:53:36;17.20;90.90
43894;DHT22;29556;50.846;4.442;2022-10-22T07:56:02;17.20;90.70
43894;DHT22;29556;50.846;4.442;2022-10-22T07:58:27;17.20;90.60
43894;DHT22;29556;50.846;4.442;2022-10-22T08:00:57;17.30;90.60
43894;DHT22;29556;50.846;4.442;2022-10-22T08:03:25;17.30;90.50
43894;DHT22;29556;50.846;4.442;2022-10-22T08:05:51;17.40;90.40
43894;DHT22;29556;50.846;4.442;2022-10-22T08:08:17;17.40;90.50
43894;DHT22;29556;50.846;4.442;2022-10-22T08:10:43;17.40;90.30
43894;DHT22;29556;50.846;4.442;2022-10-22T08:13:10;17.50;90.30
43894;DHT22;29556;50.846;4.442;2022-10-22T08:15:36;17.50;90.10
43894;DHT22;29556;50.846;4.442;2022-10-22T08:18:02;17.60;90.10
43894;DHT22;29556;50.846;4.442;2022-10-22T08:20:28;17.60;90.00
43894;DHT22;29556;50.846;4.442;2022-10-22T08:22:53;17.70;90.10
43894;DHT22;29556;50.846;4.442;2022-10-22T08:25:19;17.70;89.70
43894;DHT22;29556;50.846;4.442;2022-10-22T08:27:45;17.80;89.70
43894;DHT22;29556;50.846;4.442;2022-10-22T08:30:11;17.90;89.80
43894;DHT22;29556;50.846;4.442;2022-10-22T08:32:37;17.90;89.50
43894;DHT22;29556;50.846;4.442;2022-10-22T08:35:03;17.90;88.70
43894;DHT22;29556;50.846;4.442;2022-10-22T08:37:29;17.90;88.20
43894;DHT22;29556;50.846;4.442;2022-10-22T08:39:54;17.80;87.90
43894;DHT22;29556;50.846;4.442;2022-10-22T08:45:39;17.90;87.60
43894;DHT22;29556;50.846;4.442;2022-10-22T08:50:48;17.90;88.00
43894;DHT22;29556;50.846;4.442;2022-10-22T08:53:16;18.00;87.90
43894;DHT22;29556;50.846;4.442;2022-10-22T08:55:43;17.90;87.40
43894;DHT22;29556;50.846;4.442;2022-10-22T08:58:46;17.90;87.30
43894;DHT22;29556;50.846;4.442;2022-10-22T09:01:38;17.90;87.30
43894;DHT22;29556;50.846;4.442;2022-10-22T09:06:44;18.00;87.80
43894;DHT22;29556;50.846;4.442;2022-10-22T09:09:16;18.00;87.20
43894;DHT22;29556;50.846;4.442;2022-10-22T09:11:47;18.00;87.10
43894;DHT22;29556;50.846;4.442;2022-10-22T09:14:19;18.10;87.30
43894;DHT22;29556;50.846;4.442;2022-10-22T09:19:30;18.20;87.50
43894;DHT22;29556;50.846;4.442;2022-10-22T09:22:24;18.30;87.10
43894;DHT22;29556;50.846;4.442;2022-10-22T09:24:58;18.40;87.50
43894;DHT22;29556;50.846;4.442;2022-10-22T09:27:29;18.40;87.20
43894;DHT22;29556;50.846;4.442;2022-10-22T09:29:55;18.50;86.90
43894;DHT22;29556;50.846;4.442;2022-10-22T09:32:21;18.50;86.50
43894;DHT22;29556;50.846;4.442;2022-10-22T09:34:48;18.40;85.70
43894;DHT22;29556;50.846;4.442;2022-10-22T09:37:17;18.30;84.70
43894;DHT22;29556;50.846;4.442;2022-10-22T09:39:45;18.20;84.70
43894;DHT22;29556;50.846;4.442;2022-10-22T09:42:14;18.10;84.60
43894;DHT22;29556;50.846;4.442;2022-10-22T09:44:40;18.10;85.10
43894;DHT22;29556;50.846;4.442;2022-10-22T09:47:27;18.00;85.00
43894;DHT22;29556;50.846;4.442;2022-10-22T10:09:01;17.90;85.90
43894;DHT22;29556;50.846;4.442;2022-10-22T10:14:33;19.10;84.00
43894;DHT22;29556;50.846;4.442;2022-10-22T10:17:07;19.00;83.70
43894;DHT22;29556;50.846;4.442;2022-10-22T10:19:55;18.90;83.00
43894;DHT22;29556;50.846;4.442;2022-10-22T10:27:39;19.00;83.80
43894;DHT22;29556;50.846;4.442;2022-10-22T10:30:14;19.10;83.70
43894;DHT22;29556;50.846;4.442;2022-10-22T10:35:24;19.20;83.10
43894;DHT22;29556;50.846;4.442;2022-10-22T10:40:55;19.30;82.00
43894;DHT22;29556;50.846;4.442;2022-10-22T10:46:27;19.40;81.40
43894;DHT22;29556;50.846;4.442;2022-10-22T10:49:07;19.50;81.50
43894;DHT22;29556;50.846;4.442;2022-10-22T10:51:46;19.50;80.40
43894;DHT22;29556;50.846;4.442;2022-10-22T10:54:39;19.60;80.90
43894;DHT22;29556;50.846;4.442;2022-10-22T10:57:11;19.60;80.30
43894;DHT22;29556;50.846;4.442;2022-10-22T10:59:44;19.70;80.10
43894;DHT22;29556;50.846;4.442;2022-10-22T11:07:58;19.70;79.60
43894;DHT22;29556;50.846;4.442;2022-10-22T11:10:39;19.80;80.00
43894;DHT22;29556;50.846;4.442;2022-10-22T11:13:33;19.90;80.00
43894;DHT22;29556;50.846;4.442;2022-10-22T11:21:20;20.00;79.00
43894;DHT22;29556;50.846;4.442;2022-10-22T11:26:40;20.00;78.90
43894;DHT22;29556;50.846;4.442;2022-10-22T11:29:13;20.00;78.80
43894;DHT22;29556;50.846;4.442;2022-10-22T11:31:40;20.10;79.30
43894;DHT22;29556;50.846;4.442;2022-10-22T11:36:42;20.20;78.80
43894;DHT22;29556;50.846;4.442;2022-10-22T11:39:29;20.20;78.30
43894;DHT22;29556;50.846;4.442;2022-10-22T11:42:04;20.10;77.40
43894;DHT22;29556;50.846;4.442;2022-10-22T11:44:30;20.00;77.20
43894;DHT22;29556;50.846;4.442;2022-10-22T11:47:23;20.00;77.40
43894;DHT22;29556;50.846;4.442;2022-10-22T11:50:20;19.80;76.60
43894;DHT22;29556;50.846;4.442;2022-10-22T11:52:59;19.70;76.90
43894;DHT22;29556;50.846;4.442;2022-10-22T11:55:47;19.80;77.70
43894;DHT22;29556;50.846;4.442;2022-10-22T12:11:26;20.20;75.90
43894;DHT22;29556;50.846;4.442;2022-10-22T12:16:42;20.10;75.10
43894;DHT22;29556;50.846;4.442;2022-10-22T12:19:17;20.10;75.10
43894;DHT22;29556;50.846;4.442;2022-10-22T12:21:54;20.10;74.50
43894;DHT22;29556;50.846;4.442;2022-10-22T12:24:23;20.10;75.10
43894;DHT22;29556;50.846;4.442;2022-10-22T12:26:50;20.20;75.50
43894;DHT22;29556;50.846;4.442;2022-10-22T12:29:18;20.20;74.70
43894;DHT22;29556;50.846;4.442;2022-10-22T12:31:46;20.20;74.90
43894;DHT22;29556;50.846;4.442;2022-10-22T12:34:21;20.40;75.20
43894;DHT22;29556;50.846;4.442;2022-10-22T12:36:49;20.50;74.90
43894;DHT22;29556;50.846;4.442;2022-10-22T12:39:21;20.40;73.10
43894;DHT22;29556;50.846;4.442;2022-10-22T12:41:47;20.50;73.20
43894;DHT22;29556;50.846;4.442;2022-10-22T12:44:17;20.50;73.20
43894;DHT22;29556;50.846;4.442;2022-10-22T12:46:45;20.40;72.90
43894;DHT22;29556;50.846;4.442;2022-10-22T12:49:35;20.30;73.20
43894;DHT22;29556;50.846;4.442;2022-10-22T12:52:05;20.40;73.80
43894;DHT22;29556;50.846;4.442;2022-10-22T12:54:33;20.30;74.90
43894;DHT22;29556;50.846;4.442;2022-10-22T12:56:59;20.30;74.40
43894;DHT22;29556;50.846;4.442;2022-10-22T12:59:26;20.30;74.60
43894;DHT22;29556;50.846;4.442;2022-10-22T13:01:54;20.30;75.60
43894;DHT22;29556;50.846;4.442;2022-10-22T13:04:32;20.20;74.60
43894;DHT22;29556;50.846;4.442;2022-10-22T13:09:40;20.20;74.00
43894;DHT22;29556;50.846;4.442;2022-10-22T13:12:08;20.30;74.30
43894;DHT22;29556;50.846;4.442;2022-10-22T13:14:39;20.30;74.30
43894;DHT22;29556;50.846;4.442;2022-10-22T13:17:20;20.30;73.50
43894;DHT22;29556;50.846;4.442;2022-10-22T13:20:03;20.30;74.00
43894;DHT22;29556;50.846;4.442;2022-10-22T13:22:36;20.30;73.50
43894;DHT22;29556;50.846;4.442;2022-10-22T13:27:30;20.30;74.30
43894;DHT22;29556;50.846;4.442;2022-10-22T13:30:20;20.30;73.80
43894;DHT22;29556;50.846;4.442;2022-10-22T13:33:16;20.30;73.90
43894;DHT22;29556;50.846;4.442;2022-10-22T13:35:44;20.30;73.80
43894;DHT22;29556;50.846;4.442;2022-10-22T13:38:16;20.30;74.10
43894;DHT22;29556;50.846;4.442;2022-10-22T13:40:42;20.40;74.30
43894;DHT22;29556;50.846;4.442;2022-10-22T13:43:08;20.40;74.10
43894;DHT22;29556;50.846;4.442;2022-10-22T13:45:33;20.30;72.70
43894;DHT22;29556;50.846;4.442;2022-10-22T13:47:59;20.30;72.90
43894;DHT22;29556;50.846;4.442;2022-10-22T13:50:25;20.30;72.80
43894;DHT22;29556;50.846;4.442;2022-10-22T13:52:53;20.30;73.40
43894;DHT22;29556;50.846;4.442;2022-10-22T13:55:20;20.20;72.80
43894;DHT22;29556;50.846;4.442;2022-10-22T13:57:46;20.20;73.10
43894;DHT22;29556;50.846;4.442;2022-10-22T14:00:19;20.20;73.40
43894;DHT22;29556;50.846;4.442;2022-10-22T14:02:51;20.20;73.30
43894;DHT22;29556;50.846;4.442;2022-10-22T14:05:18;20.20;73.50
43894;DHT22;29556;50.846;4.442;2022-10-22T14:07:44;20.30;73.80
43894;DHT22;29556;50.846;4.442;2022-10-22T14:10:16;20.30;73.70
43894;DHT22;29556;50.846;4.442;2022-10-22T14:12:42;20.40;73.90
43894;DHT22;29556;50.846;4.442;2022-10-22T14:15:13;20.50;73.60
43894;DHT22;29556;50.846;4.442;2022-10-22T14:17:41;20.40;73.30
43894;DHT22;29556;50.846;4.442;2022-10-22T14:20:30;20.40;73.20
43894;DHT22;29556;50.846;4.442;2022-10-22T14:25:56;20.40;73.30
43894;DHT22;29556;50.846;4.442;2022-10-22T14:28:22;20.40;73.50
43894;DHT22;29556;50.846;4.442;2022-10-22T14:30:49;20.40;73.20
43894;DHT22;29556;50.846;4.442;2022-10-22T14:33:18;20.30;72.50
43894;DHT22;29556;50.846;4.442;2022-10-22T14:35:46;20.30;72.60
43894;DHT22;29556;50.846;4.442;2022-10-22T14:38:11;20.20;71.70
43894;DHT22;29556;50.846;4.442;2022-10-22T14:40:38;20.20;72.40
43894;DHT22;29556;50.846;4.442;2022-10-22T14:43:06;20.10;72.90
43894;DHT22;29556;50.846;4.442;2022-10-22T14:45:32;20.10;73.80
43894;DHT22;29556;50.846;4.442;2022-10-22T14:47:57;20.10;73.30
43894;DHT22;29556;50.846;4.442;2022-10-22T14:50:23;20.10;73.40
43894;DHT22;29556;50.846;4.442;2022-10-22T14:52:50;20.10;73.30
43894;DHT22;29556;50.846;4.442;2022-10-22T14:55:17;20.10;73.50
43894;DHT22;29556;50.846;4.442;2022-10-22T14:57:43;20.00;73.70
43894;DHT22;29556;50.846;4.442;2022-10-22T15:00:12;20.10;73.90
43894;DHT22;29556;50.846;4.442;2022-10-22T15:02:38;20.10;74.10
43894;DHT22;29556;50.846;4.442;2022-10-22T15:05:04;20.10;74.40
43894;DHT22;29556;50.846;4.442;2022-10-22T15:07:30;20.10;74.70
43894;DHT22;29556;50.846;4.442;2022-10-22T15:09:55;20.10;75.70
43894;DHT22;29556;50.846;4.442;2022-10-22T15:12:21;20.00;75.10
43894;DHT22;29556;50.846;4.442;2022-10-22T15:14:47;20.00;75.40
43894;DHT22;29556;50.846;4.442;2022-10-22T15:17:13;20.00;75.50
43894;DHT22;29556;50.846;4.442;2022-10-22T15:19:39;20.00;75.80
43894;DHT22;29556;50.846;4.442;2022-10-22T15:22:05;20.00;76.10
43894;DHT22;29556;50.846;4.442;2022-10-22T15:24:31;20.00;76.30
43894;DHT22;29556;50.846;4.442;2022-10-22T15:26:57;19.90;76.50
43894;DHT22;29556;50.846;4.442;2022-10-22T15:29:23;19.90;76.70
43894;DHT22;29556;50.846;4.442;2022-10-22T15:31:54;19.90;76.90
43894;DHT22;29556;50.846;4.442;2022-10-22T15:34:30;19.90;77.10
43894;DHT22;29556;50.846;4.442;2022-10-22T15:36:59;19.90;77.30
43894;DHT22;29556;50.846;4.442;2022-10-22T15:39:28;19.90;77.50
43894;DHT22;29556;50.846;4.442;2022-10-22T15:42:01;19.90;77.80
43894;DHT22;29556;50.846;4.442;2022-10-22T15:44:30;19.90;78.00
43894;DHT22;29556;50.846;4.442;2022-10-22T15:46:57;19.90;78.10
43894;DHT22;29556;50.846;4.442;2022-10-22T15:49:27;19.90;78.30
43894;DHT22;29556;50.846;4.442;2022-10-22T15:51:55;19.90;78.50
43894;DHT22;29556;50.846;4.442;2022-10-22T15:54:25;19.80;78.60
43894;DHT22;29556;50.846;4.442;2022-10-22T15:56:55;19.80;78.80
43894;DHT22;29556;50.846;4.442;2022-10-22T15:59:23;19.80;79.10
43894;DHT22;29556;50.846;4.442;2022-10-22T16:01:50;19.70;80.00
43894;DHT22;29556;50.846;4.442;2022-10-22T16:04:18;19.70;79.40
43894;DHT22;29556;50.846;4.442;2022-10-22T16:06:47;19.60;79.50
43894;DHT22;29556;50.846;4.442;2022-10-22T16:09:16;19.50;79.70
43894;DHT22;29556;50.846;4.442;2022-10-22T16:11:42;19.50;79.80
43894;DHT22;29556;50.846;4.442;2022-10-22T16:14:11;19.40;80.00
43894;DHT22;29556;50.846;4.442;2022-10-22T16:16:40;19.30;80.20
43894;DHT22;29556;50.846;4.442;2022-10-22T16:19:10;19.20;80.40
43894;DHT22;29556;50.846;4.442;2022-10-22T16:21:36;19.20;80.70
43894;DHT22;29556;50.846;4.442;2022-10-22T16:24:03;19.10;80.80
43894;DHT22;29556;50.846;4.442;2022-10-22T16:26:29;19.00;81.10
43894;DHT22;29556;50.846;4.442;2022-10-22T16:28:54;19.00;81.30
43894;DHT22;29556;50.846;4.442;2022-10-22T16:31:20;18.90;81.50
43894;DHT22;29556;50.846;4.442;2022-10-22T16:33:46;18.70;81.60
43894;DHT22;29556;50.846;4.442;2022-10-22T16:36:14;18.70;81.80
43894;DHT22;29556;50.846;4.442;2022-10-22T16:38:42;18.70;82.00
43894;DHT22;29556;50.846;4.442;2022-10-22T16:41:12;18.60;82.20
43894;DHT22;29556;50.846;4.442;2022-10-22T16:43:39;18.50;82.40
43894;DHT22;29556;50.846;4.442;2022-10-22T16:46:05;18.40;82.60
43894;DHT22;29556;50.846;4.442;2022-10-22T16:48:32;18.40;82.80
43894;DHT22;29556;50.846;4.442;2022-10-22T16:50:58;18.30;83.00
43894;DHT22;29556;50.846;4.442;2022-10-22T16:53:24;18.30;83.20
43894;DHT22;29556;50.846;4.442;2022-10-22T16:55:50;18.20;83.50
43894;DHT22;29556;50.846;4.442;2022-10-22T16:58:15;18.20;83.70
43894;DHT22;29556;50.846;4.442;2022-10-22T17:00:41;18.10;83.80
43894;DHT22;29556;50.846;4.442;2022-10-22T17:03:10;18.10;83.90
43894;DHT22;29556;50.846;4.442;2022-10-22T17:05:36;18.00;84.10
43894;DHT22;29556;50.846;4.442;2022-10-22T17:08:01;18.00;84.30
43894;DHT22;29556;50.846;4.442;2022-10-22T17:10:27;18.00;84.50
43894;DHT22;29556;50.846;4.442;2022-10-22T17:12:53;18.00;84.60
43894;DHT22;29556;50.846;4.442;2022-10-22T17:15:18;17.90;84.70
43894;DHT22;29556;50.846;4.442;2022-10-22T17:17:44;17.80;84.80
43894;DHT22;29556;50.846;4.442;2022-10-22T17:20:13;17.80;85.00
43894;DHT22;29556;50.846;4.442;2022-10-22T17:22:39;17.80;85.20
43894;DHT22;29556;50.846;4.442;2022-10-22T17:25:10;17.70;85.30
43894;DHT22;29556;50.846;4.442;2022-10-22T17:27:36;17.70;85.50
43894;DHT22;29556;50.846;4.442;2022-10-22T17:30:03;17.60;85.60
43894;DHT22;29556;50.846;4.442;2022-10-22T17:32:29;17.60;85.80
43894;DHT22;29556;50.846;4.442;2022-10-22T17:34:55;17.60;85.90
43894;DHT22;29556;50.846;4.442;2022-10-22T17:37:20;17.60;86.20
43894;DHT22;29556;50.846;4.442;2022-10-22T17:39:46;17.60;86.40
43894;DHT22;29556;50.846;4.442;2022-10-22T17:42:12;17.60;86.50
43894;DHT22;29556;50.846;4.442;2022-10-22T17:44:37;17.60;86.70